createdAt,value
2019-05-20T00:01:48.750Z,13.05
2019-05-20T00:04:15.625Z,13.12
2019-05-20T00:06:42.285Z,13.12
2019-05-20T00:09:08.966Z,13.19
2019-05-20T00:11:35.623Z,13.22
2019-05-20T00:14:02.427Z,13.12
2019-05-20T00:16:29.177Z,13.16
2019-05-20T00:18:55.958Z,13.06
2019-05-20T00:21:22.717Z,12.93
2019-05-20T00:23:49.510Z,12.95
2019-05-20T00:26:17.378Z,12.92
2019-05-20T00:28:44.062Z,12.83
2019-05-20T00:31:10.854Z,12.69
2019-05-20T00:33:37.531Z,12.63
2019-05-20T00:36:04.313Z,12.66
2019-05-20T00:38:31.156Z,12.66
2019-05-20T00:40:57.897Z,12.70
2019-05-20T00:43:24.713Z,12.69
2019-05-20T00:45:51.381Z,12.53
2019-05-20T00:48:18.040Z,12.77
2019-05-20T00:50:44.701Z,12.80
2019-05-20T00:53:11.467Z,12.90
2019-05-20T00:55:38.747Z,12.66
2019-05-20T00:58:05.505Z,12.66
2019-05-20T01:00:32.589Z,12.64
2019-05-20T01:02:59.292Z,12.66
2019-05-20T01:05:26.157Z,12.72
2019-05-20T01:07:52.820Z,12.82
2019-05-20T01:10:19.716Z,12.86
2019-05-20T01:12:46.389Z,12.92
2019-05-20T01:15:13.949Z,12.93
2019-05-20T01:17:40.621Z,12.90
2019-05-20T01:20:07.401Z,12.87
2019-05-20T01:22:35.194Z,12.84
2019-05-20T01:25:01.883Z,12.80
2019-05-20T01:27:28.557Z,12.77
2019-05-20T01:29:55.256Z,12.64
2019-05-20T01:32:22.005Z,12.58
2019-05-20T01:34:48.673Z,12.53
2019-05-20T01:37:15.325Z,12.58
2019-05-20T01:39:42.027Z,12.58
2019-05-20T01:42:08.674Z,12.58
2019-05-20T01:44:35.440Z,12.77
2019-05-20T01:47:02.105Z,12.79
2019-05-20T01:49:28.954Z,12.72
2019-05-20T01:51:55.620Z,12.58
2019-05-20T01:54:22.335Z,12.70
2019-05-20T01:56:48.982Z,12.64
2019-05-20T01:59:15.665Z,12.44
2019-05-20T02:01:42.365Z,12.46
2019-05-20T02:04:09.053Z,12.44
2019-05-20T02:06:35.742Z,12.49
2019-05-20T02:09:06.058Z,12.64
2019-05-20T02:11:32.758Z,12.44
2019-05-20T02:14:04.327Z,12.56
2019-05-20T02:16:31.273Z,12.61
2019-05-20T02:18:57.892Z,12.67
2019-05-20T02:21:24.739Z,12.88
2019-05-20T02:23:51.632Z,12.69
2019-05-20T02:26:18.418Z,12.64
2019-05-20T02:28:45.225Z,12.64
2019-05-20T02:31:13.203Z,12.62
2019-05-20T02:33:50.968Z,12.51
2019-05-20T02:36:08.807Z,12.59
2019-05-20T02:38:35.467Z,12.46
2019-05-20T02:41:02.425Z,12.41
2019-05-20T02:43:29.248Z,12.37
2019-05-20T02:45:55.990Z,12.38
2019-05-20T02:48:22.678Z,12.53
2019-05-20T02:50:49.462Z,12.63
2019-05-20T02:53:16.206Z,12.61
2019-05-20T02:55:43.240Z,12.51
2019-05-20T02:58:10.039Z,12.53
2019-05-20T03:00:36.819Z,12.48
2019-05-20T03:03:03.634Z,12.45
2019-05-20T03:05:30.304Z,12.43
2019-05-20T03:07:57.046Z,12.35
2019-05-20T03:10:23.932Z,12.43
2019-05-20T03:12:50.826Z,12.48
2019-05-20T03:15:17.994Z,12.49
2019-05-20T03:17:44.785Z,12.51
2019-05-20T03:20:11.588Z,12.26
2019-05-20T03:22:38.246Z,12.29
2019-05-20T03:25:05.420Z,12.22
2019-05-20T03:27:32.345Z,12.46
2019-05-20T03:29:59.031Z,12.60
2019-05-20T03:32:25.748Z,12.50
2019-05-20T03:34:59.452Z,12.42
2019-05-20T03:37:21.184Z,12.36
2019-05-20T03:39:47.855Z,12.37
2019-05-20T03:42:14.600Z,12.42
2019-05-20T03:44:41.346Z,12.42
2019-05-20T03:47:08.032Z,12.55
2019-05-20T03:49:40.943Z,12.45
2019-05-20T03:52:14.131Z,12.65
2019-05-20T03:54:50.249Z,12.55
2019-05-20T03:57:17.034Z,12.44
2019-05-20T03:59:45.011Z,12.35
2019-05-20T04:02:13.305Z,12.38
2019-05-20T04:04:40.286Z,12.46
2019-05-20T04:07:08.605Z,12.49
2019-05-20T04:09:37.213Z,12.51
2019-05-20T04:12:05.844Z,12.63
2019-05-20T04:14:32.715Z,12.37
2019-05-20T04:16:59.345Z,12.48
2019-05-20T04:19:26.119Z,12.52
2019-05-20T04:21:52.813Z,12.55
2019-05-20T04:24:19.577Z,12.63
2019-05-20T04:26:47.804Z,12.47
2019-05-20T04:29:14.611Z,12.61
2019-05-20T04:31:41.276Z,12.52
2019-05-20T04:34:08.048Z,12.35
2019-05-20T04:36:34.864Z,12.31
2019-05-20T04:39:01.496Z,12.26
2019-05-20T04:41:28.384Z,12.29
2019-05-20T04:43:55.171Z,12.31
2019-05-20T04:46:21.858Z,12.34
2019-05-20T04:48:48.553Z,12.84
2019-05-20T04:51:15.502Z,12.58
2019-05-20T04:53:42.154Z,12.45
2019-05-20T04:56:08.929Z,12.48
2019-05-20T04:58:35.667Z,12.72
2019-05-20T05:01:02.613Z,12.65
2019-05-20T05:03:29.291Z,12.73
2019-05-20T05:05:56.210Z,12.70
2019-05-20T05:08:23.112Z,12.61
2019-05-20T05:10:49.935Z,12.80
2019-05-20T05:13:16.823Z,12.77
2019-05-20T05:15:43.773Z,12.78
2019-05-20T05:18:10.682Z,12.81
2019-05-20T05:20:37.490Z,12.87
2019-05-20T05:23:04.359Z,12.73
2019-05-20T05:25:31.226Z,12.84
2019-05-20T05:27:57.996Z,13.16
2019-05-20T05:30:24.887Z,13.17
2019-05-20T05:32:51.576Z,12.96
2019-05-20T05:35:18.473Z,12.81
2019-05-20T05:37:45.286Z,12.81
2019-05-20T05:40:13.621Z,12.98
2019-05-20T05:42:40.302Z,13.12
2019-05-20T05:45:07.435Z,13.09
2019-05-20T05:47:34.200Z,13.50
2019-05-20T05:50:00.993Z,13.37
2019-05-20T05:52:28.731Z,13.38
2019-05-20T05:54:55.496Z,13.62
2019-05-20T05:57:22.162Z,13.55
2019-05-20T05:59:48.851Z,13.31
2019-05-20T06:02:15.564Z,13.18
2019-05-20T06:04:42.243Z,13.27
2019-05-20T06:07:09.045Z,13.31
2019-05-20T06:09:35.701Z,13.31
2019-05-20T06:12:02.592Z,13.41
2019-05-20T06:14:29.580Z,13.68
2019-05-20T06:16:56.202Z,13.52
2019-05-20T06:19:22.915Z,13.43
2019-05-20T06:21:49.739Z,13.42
2019-05-20T06:24:16.452Z,13.46
2019-05-20T06:26:43.123Z,13.49
2019-05-20T06:29:09.902Z,13.54
2019-05-20T06:31:36.718Z,13.46
2019-05-20T06:34:03.615Z,13.65
2019-05-20T06:36:34.660Z,13.76
2019-05-20T06:39:11.570Z,13.79
2019-05-20T06:41:39.017Z,13.93
2019-05-20T06:44:05.934Z,13.71
2019-05-20T06:46:32.726Z,13.63
2019-05-20T06:48:59.415Z,13.46
2019-05-20T06:51:26.086Z,13.42
2019-05-20T06:53:52.742Z,13.47
2019-05-20T06:56:19.434Z,13.60
2019-05-20T06:58:46.106Z,13.62
2019-05-20T07:01:12.793Z,13.59
2019-05-20T07:03:40.460Z,13.40
2019-05-20T07:06:07.153Z,13.54
2019-05-20T07:08:33.839Z,13.44
2019-05-20T07:11:00.524Z,13.47
2019-05-20T07:13:27.468Z,13.58
2019-05-20T07:15:54.262Z,13.62
2019-05-20T07:18:21.266Z,13.74
2019-05-20T07:20:48.080Z,13.76
2019-05-20T07:23:14.866Z,13.83
2019-05-20T07:25:41.642Z,13.83
2019-05-20T07:28:08.551Z,13.90
2019-05-20T07:30:35.218Z,13.88
2019-05-20T07:33:01.960Z,13.77
2019-05-20T07:35:30.961Z,13.94
2019-05-20T07:37:57.464Z,13.89
2019-05-20T07:40:31.640Z,13.98
2019-05-20T07:42:58.843Z,14.02
2019-05-20T07:45:26.601Z,13.94
2019-05-20T07:47:53.890Z,13.89
2019-05-20T07:50:21.191Z,14.00
2019-05-20T07:52:48.612Z,14.06
2019-05-20T07:55:15.510Z,14.30
2019-05-20T07:57:42.881Z,14.19
2019-05-20T08:00:10.276Z,14.22
2019-05-20T08:02:37.148Z,14.05
2019-05-20T08:05:04.505Z,14.02
2019-05-20T08:07:50.597Z,14.16
2019-05-20T08:09:59.997Z,14.32
2019-05-20T08:12:26.815Z,14.38
2019-05-20T08:14:54.108Z,14.55
2019-05-20T08:17:21.636Z,14.59
2019-05-20T08:19:50.499Z,14.48
2019-05-20T08:22:18.212Z,14.38
2019-05-20T08:24:45.856Z,14.26
2019-05-20T08:27:13.663Z,14.33
2019-05-20T08:29:41.504Z,14.35
2019-05-20T08:32:09.051Z,14.43
2019-05-20T08:34:37.493Z,14.59
2019-05-20T08:37:05.729Z,14.77
2019-05-20T08:39:32.617Z,14.83
2019-05-20T08:41:59.994Z,14.81
2019-05-20T08:44:27.475Z,14.94
2019-05-20T08:46:55.033Z,14.97
2019-05-20T08:49:22.814Z,15.15
2019-05-20T08:51:49.600Z,15.29
2019-05-20T08:54:16.276Z,15.27
2019-05-20T08:56:43.217Z,15.28
2019-05-20T08:59:09.890Z,15.48
2019-05-20T09:01:36.765Z,15.74
2019-05-20T09:04:03.565Z,15.64
2019-05-20T09:06:30.256Z,15.67
2019-05-20T09:08:56.953Z,15.64
2019-05-20T09:11:23.642Z,15.45
2019-05-20T09:13:50.675Z,15.52
2019-05-20T09:16:17.448Z,15.69
2019-05-20T09:18:44.172Z,15.83
2019-05-20T09:21:11.328Z,15.88
2019-05-20T09:23:38.279Z,15.90
2019-05-20T09:26:05.145Z,16.13
2019-05-20T09:28:32.052Z,16.11
2019-05-20T09:30:58.827Z,16.08
2019-05-20T09:33:25.791Z,16.19
2019-05-20T09:35:52.729Z,16.28
2019-05-20T09:38:21.305Z,16.10
2019-05-20T09:40:48.681Z,16.11
2019-05-20T09:43:15.530Z,16.23
2019-05-20T09:45:42.441Z,16.27
2019-05-20T09:48:10.244Z,16.45
2019-05-20T09:50:37.174Z,16.61
2019-05-20T09:53:06.923Z,16.58
2019-05-20T09:55:33.350Z,16.51
2019-05-20T09:58:00.543Z,16.57
2019-05-20T10:00:27.410Z,16.56
2019-05-20T10:02:54.327Z,16.53
2019-05-20T10:05:21.516Z,16.67
2019-05-20T10:07:48.209Z,16.85
2019-05-20T10:10:15.377Z,17.06
2019-05-20T10:12:46.633Z,17.11
2019-05-20T10:15:11.664Z,17.30
2019-05-20T10:17:38.475Z,17.51
2019-05-20T10:20:05.402Z,17.55
2019-05-20T10:22:32.096Z,17.77
2019-05-20T10:24:58.771Z,17.59
2019-05-20T10:27:25.623Z,17.31
2019-05-20T10:29:52.360Z,17.21
2019-05-20T10:32:19.633Z,17.27
2019-05-20T10:34:46.539Z,17.35
2019-05-20T10:37:13.243Z,17.37
2019-05-20T10:39:40.022Z,17.64
2019-05-20T10:42:06.733Z,17.70
2019-05-20T10:44:33.415Z,17.63
2019-05-20T10:47:00.108Z,17.69
2019-05-20T10:49:26.803Z,17.65
2019-05-20T10:51:53.499Z,17.52
2019-05-20T10:54:20.274Z,17.58
2019-05-20T10:56:46.960Z,17.73
2019-05-20T10:59:14.061Z,17.82
2019-05-20T11:01:41.912Z,17.65
2019-05-20T11:04:09.212Z,17.68
2019-05-20T11:06:35.944Z,18.07
2019-05-20T11:09:13.769Z,18.05
2019-05-20T11:11:33.065Z,17.94
2019-05-20T11:13:59.755Z,17.83
2019-05-20T11:16:26.594Z,17.67
2019-05-20T11:18:53.318Z,17.84
2019-05-20T11:21:20.053Z,17.85
2019-05-20T11:23:46.757Z,17.93
2019-05-20T11:26:13.948Z,17.86
2019-05-20T11:28:40.779Z,17.98
2019-05-20T11:31:07.655Z,18.12
2019-05-20T11:33:34.952Z,18.10
2019-05-20T11:36:01.800Z,18.34
2019-05-20T11:38:28.596Z,18.27
2019-05-20T11:40:55.699Z,18.38
2019-05-20T11:43:22.747Z,18.42
2019-05-20T11:45:49.679Z,18.26
2019-05-20T11:48:16.387Z,18.55
2019-05-20T11:50:43.392Z,18.50
2019-05-20T11:53:10.438Z,18.61
2019-05-20T11:55:37.134Z,18.44
2019-05-20T11:58:15.344Z,18.29
2019-05-20T12:00:32.910Z,18.27
2019-05-20T12:03:00.091Z,18.58
2019-05-20T12:05:26.828Z,18.76
2019-05-20T12:07:53.526Z,18.73
2019-05-20T12:10:20.645Z,18.60
2019-05-20T12:12:47.401Z,18.67
2019-05-20T12:15:14.588Z,18.89
2019-05-20T12:17:41.411Z,19.13
2019-05-20T12:20:10.904Z,19.38
2019-05-20T12:22:37.120Z,19.61
2019-05-20T12:25:04.201Z,19.57
2019-05-20T12:27:30.955Z,19.74
2019-05-20T12:29:57.740Z,19.74
2019-05-20T12:32:24.511Z,19.55
2019-05-20T12:34:51.527Z,20.07
2019-05-20T12:37:18.228Z,19.74
2019-05-20T12:39:45.975Z,19.86
2019-05-20T12:42:12.873Z,19.82
2019-05-20T12:44:39.555Z,19.46
2019-05-20T12:47:06.585Z,19.45
2019-05-20T12:49:33.680Z,19.65
2019-05-20T12:52:00.429Z,19.63
2019-05-20T12:54:27.114Z,19.84
2019-05-20T12:56:53.803Z,19.89
2019-05-20T12:59:20.511Z,20.17
2019-05-20T13:01:47.601Z,19.88
2019-05-20T13:04:15.550Z,19.85
2019-05-20T13:06:42.457Z,20.05
2019-05-20T13:09:09.239Z,20.17
2019-05-20T13:11:36.213Z,20.57
2019-05-20T13:14:04.240Z,20.61
2019-05-20T13:16:31.080Z,20.85
2019-05-20T13:18:57.849Z,21.08
2019-05-20T13:21:24.657Z,21.56
2019-05-20T13:23:51.480Z,21.80
2019-05-20T13:26:18.385Z,22.02
2019-05-20T13:28:45.284Z,21.76
2019-05-20T13:31:12.180Z,21.50
2019-05-20T13:33:38.866Z,21.58
2019-05-20T13:36:05.942Z,21.94
2019-05-20T13:38:32.631Z,22.05
2019-05-20T13:40:59.408Z,21.77
2019-05-20T13:43:26.290Z,21.82
2019-05-20T13:45:52.980Z,22.29
2019-05-20T13:48:19.814Z,21.62
2019-05-20T13:50:46.502Z,21.48
2019-05-20T13:53:13.300Z,21.42
2019-05-20T13:55:40.032Z,21.65
2019-05-20T13:58:06.800Z,21.46
2019-05-20T14:00:33.740Z,21.54
2019-05-20T14:03:00.528Z,22.30
2019-05-20T14:05:28.431Z,22.65
2019-05-20T14:07:55.141Z,22.68
2019-05-20T14:10:21.998Z,22.81
2019-05-20T14:12:48.714Z,22.84
2019-05-20T14:15:15.490Z,22.59
2019-05-20T14:17:42.294Z,22.24
2019-05-20T14:20:10.286Z,22.83
2019-05-20T14:22:38.001Z,22.56
2019-05-20T14:25:05.802Z,22.70
2019-05-20T14:27:33.091Z,22.54
2019-05-20T14:29:59.951Z,22.64
2019-05-20T14:32:26.658Z,22.66
2019-05-20T14:34:54.050Z,22.13
2019-05-20T14:37:21.361Z,22.08
2019-05-20T14:39:48.788Z,22.37
2019-05-20T14:42:15.773Z,22.24
2019-05-20T14:44:43.073Z,22.13
2019-05-20T14:47:09.778Z,21.85
2019-05-20T14:49:37.041Z,22.21
2019-05-20T14:52:04.121Z,22.33
2019-05-20T14:54:31.078Z,22.26
2019-05-20T14:56:58.206Z,22.23
2019-05-20T14:59:24.886Z,22.05
2019-05-20T15:01:51.600Z,22.22
2019-05-20T15:04:18.729Z,22.25
2019-05-20T15:06:45.583Z,22.00
2019-05-20T15:09:12.266Z,21.53
2019-05-20T15:11:39.153Z,21.19
2019-05-20T15:14:07.557Z,21.43
2019-05-20T15:16:34.362Z,21.22
2019-05-20T15:19:01.453Z,21.23
2019-05-20T15:21:29.551Z,21.12
2019-05-20T15:23:57.461Z,21.04
2019-05-20T15:26:24.210Z,21.12
2019-05-20T15:28:51.722Z,21.09
2019-05-20T15:31:18.756Z,21.16
2019-05-20T15:33:45.753Z,21.05
2019-05-20T15:36:12.534Z,21.13
2019-05-20T15:38:39.274Z,21.17
2019-05-20T15:41:06.159Z,21.10
2019-05-20T15:43:32.859Z,20.94
2019-05-20T15:46:39.661Z,20.81
2019-05-20T15:49:06.958Z,20.88
2019-05-20T15:51:33.804Z,20.86
2019-05-20T15:54:00.869Z,20.80
2019-05-20T15:56:27.527Z,20.61
2019-05-20T15:58:54.215Z,20.57
2019-05-20T16:01:20.995Z,20.48
2019-05-20T16:03:51.142Z,20.48
2019-05-20T16:06:17.449Z,20.57
2019-05-20T16:08:44.162Z,20.74
2019-05-20T16:11:10.825Z,20.76
2019-05-20T16:13:37.502Z,20.89
2019-05-20T16:16:04.754Z,20.84
2019-05-20T16:18:31.417Z,20.79
2019-05-20T16:20:58.270Z,20.81
2019-05-20T16:23:27.102Z,20.82
2019-05-20T16:25:53.900Z,20.70
2019-05-20T16:28:20.670Z,20.72
2019-05-20T16:30:47.569Z,20.97
2019-05-20T16:33:14.232Z,20.94
2019-05-20T16:35:42.229Z,20.94
2019-05-20T16:38:09.027Z,20.99
2019-05-20T16:40:35.817Z,21.01
2019-05-20T16:43:02.805Z,21.03
2019-05-20T16:45:29.587Z,20.95
2019-05-20T16:47:56.356Z,20.98
2019-05-20T16:50:23.042Z,20.96
2019-05-20T16:52:49.882Z,20.90
2019-05-20T16:55:16.770Z,20.89
2019-05-20T16:57:43.835Z,20.93
2019-05-20T17:00:30.110Z,20.86
2019-05-20T17:02:40.504Z,20.92
2019-05-20T17:05:07.701Z,20.85
2019-05-20T17:07:34.707Z,20.83
2019-05-20T17:10:01.676Z,20.84
2019-05-20T17:12:28.574Z,20.81
2019-05-20T17:14:55.672Z,20.86
2019-05-20T17:17:22.444Z,20.85
2019-05-20T17:19:49.350Z,20.76
2019-05-20T17:22:16.173Z,20.81
2019-05-20T17:24:43.691Z,20.69
2019-05-20T17:27:10.490Z,20.67
2019-05-20T17:29:37.609Z,20.62
2019-05-20T17:32:04.299Z,20.63
2019-05-20T17:34:30.980Z,20.60
2019-05-20T17:36:58.126Z,20.62
2019-05-20T17:39:24.947Z,20.70
2019-05-20T17:41:51.794Z,20.63
2019-05-20T17:44:19.886Z,20.59
2019-05-20T17:46:51.397Z,20.53
2019-05-20T17:49:20.447Z,20.50
2019-05-20T17:51:47.302Z,20.43
2019-05-20T17:54:14.477Z,20.48
2019-05-20T17:56:41.156Z,20.43
2019-05-20T17:59:08.042Z,20.35
2019-05-20T18:01:35.081Z,20.43
2019-05-20T18:04:03.275Z,20.42
2019-05-20T18:06:30.590Z,20.43
2019-05-20T18:08:59.892Z,20.36
2019-05-20T18:11:27.385Z,20.27
2019-05-20T18:13:54.409Z,20.19
2019-05-20T18:16:21.103Z,20.17
2019-05-20T18:18:47.898Z,20.14
2019-05-20T18:21:14.961Z,20.05
2019-05-20T18:23:42.010Z,20.02
2019-05-20T18:26:10.278Z,20.09
2019-05-20T18:28:36.971Z,20.00
2019-05-20T18:31:03.791Z,19.99
2019-05-20T18:33:30.499Z,19.97
2019-05-20T18:35:57.511Z,19.94
2019-05-20T18:38:24.970Z,19.94
2019-05-20T18:40:51.967Z,20.02
2019-05-20T18:43:18.837Z,19.91
2019-05-20T18:45:45.599Z,19.88
2019-05-20T18:48:12.613Z,19.89
2019-05-20T18:50:39.425Z,19.84
2019-05-20T18:53:06.620Z,19.75
2019-05-20T18:55:34.997Z,19.72
2019-05-20T18:58:01.882Z,19.64
2019-05-20T19:00:28.972Z,19.61
2019-05-20T19:02:55.928Z,19.61
2019-05-20T19:05:22.865Z,19.52
2019-05-20T19:07:49.814Z,19.47
2019-05-20T19:10:17.438Z,19.43
2019-05-20T19:12:44.136Z,19.42
2019-05-20T19:15:11.890Z,19.38
2019-05-20T19:17:39.879Z,19.27
2019-05-20T19:20:06.845Z,19.24
2019-05-20T19:22:33.644Z,19.26
2019-05-20T19:25:00.494Z,19.24
2019-05-20T19:27:27.374Z,19.23
2019-05-20T19:29:54.198Z,19.16
2019-05-20T19:32:21.844Z,19.09
2019-05-20T19:34:48.831Z,19.03
2019-05-20T19:37:15.803Z,19.00
2019-05-20T19:39:42.593Z,18.82
2019-05-20T19:42:09.587Z,18.91
2019-05-20T19:44:36.770Z,18.85
2019-05-20T19:47:03.926Z,18.85
2019-05-20T19:49:30.603Z,18.85
2019-05-20T19:51:59.955Z,18.89
2019-05-20T19:54:27.562Z,18.81
2019-05-20T19:56:54.259Z,18.89
2019-05-20T19:59:21.435Z,18.84
2019-05-20T20:01:48.178Z,18.77
2019-05-20T20:04:14.781Z,18.76
2019-05-20T20:06:41.761Z,18.66
2019-05-20T20:09:08.436Z,18.59
2019-05-20T20:11:35.202Z,18.59
2019-05-20T20:14:02.185Z,18.57
2019-05-20T20:16:28.956Z,18.47
2019-05-20T20:18:55.770Z,18.53
2019-05-20T20:21:22.474Z,18.46
2019-05-20T20:23:49.314Z,18.45
2019-05-20T20:26:16.010Z,18.35
2019-05-20T20:28:42.689Z,18.41
2019-05-20T20:31:11.062Z,18.37
2019-05-20T20:33:38.160Z,18.45
2019-05-20T20:36:05.031Z,18.49
2019-05-20T20:38:31.712Z,18.40
2019-05-20T20:40:58.384Z,18.32
2019-05-20T20:43:25.278Z,18.24
2019-05-20T20:45:51.948Z,18.27
2019-05-20T20:48:18.842Z,18.24
2019-05-20T20:50:45.553Z,18.26
2019-05-20T20:53:12.231Z,18.15
2019-05-20T20:55:39.579Z,18.15
2019-05-20T20:58:06.301Z,18.18
2019-05-20T21:00:33.048Z,18.44
2019-05-20T21:02:59.739Z,18.39
2019-05-20T21:05:27.082Z,18.43
2019-05-20T21:07:53.754Z,18.39
2019-05-20T21:10:20.749Z,18.31
2019-05-20T21:12:48.453Z,18.19
2019-05-20T21:15:15.334Z,18.22
2019-05-20T21:17:44.183Z,18.21
2019-05-20T21:20:11.392Z,18.19
2019-05-20T21:22:38.206Z,18.15
2019-05-20T21:25:07.894Z,18.12
2019-05-20T21:27:34.613Z,18.12
2019-05-20T21:30:01.335Z,18.19
2019-05-20T21:32:29.506Z,18.08
2019-05-20T21:34:57.138Z,17.97
2019-05-20T21:37:23.922Z,17.89
2019-05-20T21:39:50.607Z,17.91
2019-05-20T21:42:17.398Z,17.94
2019-05-20T21:44:44.121Z,18.01
2019-05-20T21:47:10.927Z,18.03
2019-05-20T21:49:37.627Z,18.08
2019-05-20T21:52:04.311Z,17.96
2019-05-20T21:54:31.443Z,17.97
2019-05-20T21:56:58.331Z,17.89
2019-05-20T21:59:25.142Z,17.99
2019-05-20T22:01:51.958Z,17.97
2019-05-20T22:04:19.051Z,17.77
2019-05-20T22:06:45.920Z,17.70
2019-05-20T22:09:12.596Z,17.77
2019-05-20T22:11:39.942Z,17.62
2019-05-20T22:14:07.270Z,17.58
2019-05-20T22:16:34.905Z,17.52
2019-05-20T22:19:02.040Z,17.54
2019-05-20T22:21:35.688Z,17.54
2019-05-20T22:24:05.220Z,17.53
2019-05-20T22:26:32.650Z,17.48
2019-05-20T22:29:00.140Z,17.52
2019-05-20T22:31:32.910Z,17.39
2019-05-20T22:34:00.266Z,17.26
2019-05-20T22:36:27.851Z,17.20
2019-05-20T22:38:54.838Z,17.21
2019-05-20T22:41:27.866Z,17.27
2019-05-20T22:43:55.933Z,17.20
2019-05-20T22:46:23.742Z,17.21
2019-05-20T22:48:51.177Z,17.17
2019-05-20T22:51:18.668Z,17.18
2019-05-20T22:53:46.791Z,17.17
2019-05-20T22:56:23.312Z,17.21
2019-05-20T22:58:50.817Z,17.28
2019-05-20T23:01:20.510Z,17.25
2019-05-20T23:04:15.410Z,17.23
2019-05-20T23:06:42.790Z,17.23
2019-05-20T23:09:11.010Z,17.23
2019-05-20T23:11:38.678Z,17.24
2019-05-20T23:14:05.677Z,17.22
2019-05-20T23:16:35.594Z,17.25
2019-05-20T23:19:08.858Z,17.26
2019-05-20T23:21:35.750Z,17.27
2019-05-20T23:24:08.880Z,17.23
2019-05-20T23:26:35.848Z,17.18
2019-05-20T23:29:03.942Z,17.17
2019-05-20T23:31:33.516Z,17.18
2019-05-20T23:34:12.285Z,17.19
2019-05-20T23:36:30.483Z,17.16
2019-05-20T23:39:00.687Z,17.16
2019-05-20T23:41:27.658Z,17.21
2019-05-20T23:44:00.335Z,17.22
2019-05-20T23:46:27.326Z,17.27
2019-05-20T23:48:54.348Z,17.32
2019-05-20T23:51:21.316Z,17.37
2019-05-20T23:53:48.293Z,17.31
2019-05-20T23:56:15.277Z,17.32
2019-05-20T23:58:42.259Z,17.32
